sensor_id;sensor_type;location;lat;lon;timestamp;pressure;altitude;pressure_sealevel;temperature;humidity
64503;BME280;50971;51.940;21.258;2023-11-21T00:01:41;99883.21;;;0.89;100.00
64503;BME280;50971;51.940;21.258;2023-11-21T00:11:44;99884.02;;;0.79;100.00
64503;BME280;50971;51.940;21.258;2023-11-21T00:21:46;99889.86;;;0.72;100.00
64503;BME280;50971;51.940;21.258;2023-11-21T00:31:47;99902.15;;;0.73;100.00
64503;BME280;50971;51.940;21.258;2023-11-21T00:41:51;99909.32;;;0.78;100.00
64503;BME280;50971;51.940;21.258;2023-11-21T00:51:52;99910.80;;;0.71;100.00
64503;BME280;50971;51.940;21.258;2023-11-21T01:01:54;99913.16;;;0.66;100.00
64503;BME280;50971;51.940;21.258;2023-11-21T01:11:56;99921.77;;;0.70;100.00
64503;BME280;50971;51.940;21.258;2023-11-21T01:21:58;99922.13;;;0.64;100.00
64503;BME280;50971;51.940;21.258;2023-11-21T01:32:00;99939.23;;;0.50;100.00
64503;BME280;50971;51.940;21.258;2023-11-21T01:42:01;99945.81;;;0.51;100.00
64503;BME280;50971;51.940;21.258;2023-11-21T01:52:04;99942.01;;;0.53;100.00
64503;BME280;50971;51.940;21.258;2023-11-21T02:02:06;99941.50;;;0.40;100.00
64503;BME280;50971;51.940;21.258;2023-11-21T02:12:08;99942.60;;;0.37;100.00
64503;BME280;50971;51.940;21.258;2023-11-21T02:22:13;99947.95;;;0.32;100.00
64503;BME280;50971;51.940;21.258;2023-11-21T02:32:18;99964.25;;;0.31;100.00
64503;BME280;50971;51.940;21.258;2023-11-21T02:42:20;99958.27;;;0.14;100.00
64503;BME280;50971;51.940;21.258;2023-11-21T02:52:22;99962.74;;;0.07;100.00
64503;BME280;50971;51.940;21.258;2023-11-21T03:02:24;99966.36;;;-0.02;100.00
64503;BME280;50971;51.940;21.258;2023-11-21T03:12:26;99969.17;;;-0.17;100.00
64503;BME280;50971;51.940;21.258;2023-11-21T03:22:28;99980.52;;;-0.14;100.00
64503;BME280;50971;51.940;21.258;2023-11-21T03:32:29;99984.63;;;-0.19;100.00
64503;BME280;50971;51.940;21.258;2023-11-21T03:42:34;99990.33;;;-0.32;100.00
64503;BME280;50971;51.940;21.258;2023-11-21T03:52:37;99992.95;;;-0.35;100.00
64503;BME280;50971;51.940;21.258;2023-11-21T04:02:39;100012.80;;;-0.43;100.00
64503;BME280;50971;51.940;21.258;2023-11-21T04:12:41;100019.92;;;-0.49;100.00
64503;BME280;50971;51.940;21.258;2023-11-21T04:22:44;100029.02;;;-0.44;100.00
64503;BME280;50971;51.940;21.258;2023-11-21T04:32:47;100031.61;;;-0.52;100.00
64503;BME280;50971;51.940;21.258;2023-11-21T04:42:48;100034.13;;;-0.69;100.00
64503;BME280;50971;51.940;21.258;2023-11-21T04:52:50;100036.97;;;-0.64;100.00
64503;BME280;50971;51.940;21.258;2023-11-21T05:02:52;100051.73;;;-0.51;100.00
64503;BME280;50971;51.940;21.258;2023-11-21T05:12:54;100066.56;;;-0.54;100.00
64503;BME280;50971;51.940;21.258;2023-11-21T05:22:56;100069.58;;;-0.61;100.00
64503;BME280;50971;51.940;21.258;2023-11-21T05:33:00;100064.13;;;-0.69;100.00
64503;BME280;50971;51.940;21.258;2023-11-21T05:43:02;100087.69;;;-0.82;100.00
64503;BME280;50971;51.940;21.258;2023-11-21T05:53:04;100100.48;;;-0.67;100.00
64503;BME280;50971;51.940;21.258;2023-11-21T06:03:06;100110.19;;;-0.61;100.00
64503;BME280;50971;51.940;21.258;2023-11-21T06:13:09;100123.17;;;-0.71;100.00
64503;BME280;50971;51.940;21.258;2023-11-21T06:23:12;100134.90;;;-0.64;100.00
64503;BME280;50971;51.940;21.258;2023-11-21T06:33:14;100144.09;;;-0.71;100.00
64503;BME280;50971;51.940;21.258;2023-11-21T06:43:16;100156.60;;;-0.72;100.00
64503;BME280;50971;51.940;21.258;2023-11-21T06:53:19;100154.04;;;-0.59;100.00
64503;BME280;50971;51.940;21.258;2023-11-21T07:03:21;100166.00;;;-0.53;100.00
64503;BME280;50971;51.940;21.258;2023-11-21T07:13:23;100171.04;;;-0.56;100.00
64503;BME280;50971;51.940;21.258;2023-11-21T07:23:25;100185.40;;;-0.41;100.00
64503;BME280;50971;51.940;21.258;2023-11-21T07:33:27;100197.82;;;-0.21;100.00
64503;BME280;50971;51.940;21.258;2023-11-21T07:43:29;100207.96;;;-0.25;100.00
64503;BME280;50971;51.940;21.258;2023-11-21T07:53:37;100212.74;;;-0.27;100.00
64503;BME280;50971;51.940;21.258;2023-11-21T08:03:38;100215.35;;;-0.22;100.00
64503;BME280;50971;51.940;21.258;2023-11-21T08:13:40;100221.39;;;-0.31;100.00
64503;BME280;50971;51.940;21.258;2023-11-21T08:23:42;100228.19;;;-0.27;100.00
64503;BME280;50971;51.940;21.258;2023-11-21T08:33:44;100229.53;;;-0.27;100.00
64503;BME280;50971;51.940;21.258;2023-11-21T08:43:47;100237.83;;;-0.29;100.00
64503;BME280;50971;51.940;21.258;2023-11-21T08:53:50;100245.77;;;-0.16;100.00
64503;BME280;50971;51.940;21.258;2023-11-21T09:03:53;100253.05;;;-0.12;100.00
64503;BME280;50971;51.940;21.258;2023-11-21T09:13:54;100257.67;;;-0.10;100.00
64503;BME280;50971;51.940;21.258;2023-11-21T09:23:56;100262.56;;;-0.07;100.00
64503;BME280;50971;51.940;21.258;2023-11-21T09:33:58;100267.90;;;-0.17;100.00
64503;BME280;50971;51.940;21.258;2023-11-21T09:44:00;100280.29;;;-0.18;100.00
64503;BME280;50971;51.940;21.258;2023-11-21T09:54:04;100284.83;;;-0.05;100.00
64503;BME280;50971;51.940;21.258;2023-11-21T10:04:11;100288.89;;;-0.14;100.00
64503;BME280;50971;51.940;21.258;2023-11-21T10:14:14;100300.12;;;-0.10;100.00
64503;BME280;50971;51.940;21.258;2023-11-21T10:24:20;100300.63;;;0.08;100.00
64503;BME280;50971;51.940;21.258;2023-11-21T10:34:22;100296.35;;;0.20;100.00
64503;BME280;50971;51.940;21.258;2023-11-21T10:44:24;100298.97;;;0.20;100.00
64503;BME280;50971;51.940;21.258;2023-11-21T10:54:27;100302.20;;;0.14;100.00
64503;BME280;50971;51.940;21.258;2023-11-21T11:04:28;100308.68;;;0.44;100.00
64503;BME280;50971;51.940;21.258;2023-11-21T11:14:31;100310.23;;;0.61;100.00
64503;BME280;50971;51.940;21.258;2023-11-21T11:34:59;100315.91;;;0.69;100.00
64503;BME280;50971;51.940;21.258;2023-11-21T11:45:17;100322.98;;;0.58;100.00
64503;BME280;50971;51.940;21.258;2023-11-21T11:55:24;100336.52;;;0.46;100.00
64503;BME280;50971;51.940;21.258;2023-11-21T12:05:26;100337.77;;;0.31;100.00
64503;BME280;50971;51.940;21.258;2023-11-21T12:15:35;100337.70;;;0.40;100.00
64503;BME280;50971;51.940;21.258;2023-11-21T12:25:38;100346.58;;;0.66;100.00
64503;BME280;50971;51.940;21.258;2023-11-21T12:35:42;100348.89;;;0.61;100.00
64503;BME280;50971;51.940;21.258;2023-11-21T12:45:45;100358.76;;;0.67;100.00
64503;BME280;50971;51.940;21.258;2023-11-21T12:55:47;100370.21;;;0.45;100.00
64503;BME280;50971;51.940;21.258;2023-11-21T13:05:53;100372.33;;;0.34;100.00
64503;BME280;50971;51.940;21.258;2023-11-21T13:16:01;100381.50;;;0.17;100.00
64503;BME280;50971;51.940;21.258;2023-11-21T13:26:05;100393.85;;;0.09;100.00
64503;BME280;50971;51.940;21.258;2023-11-21T13:36:08;100403.72;;;0.05;100.00
64503;BME280;50971;51.940;21.258;2023-11-21T13:46:11;100416.15;;;-0.06;100.00
64503;BME280;50971;51.940;21.258;2023-11-21T13:56:19;100428.79;;;-0.07;100.00
64503;BME280;50971;51.940;21.258;2023-11-21T14:06:26;100439.95;;;-0.17;100.00
64503;BME280;50971;51.940;21.258;2023-11-21T14:16:35;100450.56;;;-0.37;100.00
64503;BME280;50971;51.940;21.258;2023-11-21T14:26:37;100474.99;;;-0.41;100.00
64503;BME280;50971;51.940;21.258;2023-11-21T14:36:39;100507.58;;;-0.43;100.00
64503;BME280;50971;51.940;21.258;2023-11-21T14:46:44;100522.21;;;-0.52;100.00
64503;BME280;50971;51.940;21.258;2023-11-21T14:56:48;100528.89;;;-0.60;100.00
64503;BME280;50971;51.940;21.258;2023-11-21T15:06:49;100543.58;;;-0.56;100.00
64503;BME280;50971;51.940;21.258;2023-11-21T15:16:54;100558.30;;;-0.66;100.00
64503;BME280;50971;51.940;21.258;2023-11-21T15:27:01;100559.20;;;-0.69;100.00
64503;BME280;50971;51.940;21.258;2023-11-21T15:37:07;100563.58;;;-0.75;100.00
64503;BME280;50971;51.940;21.258;2023-11-21T15:47:13;100565.73;;;-0.87;100.00
64503;BME280;50971;51.940;21.258;2023-11-21T15:57:15;100582.02;;;-0.91;100.00
64503;BME280;50971;51.940;21.258;2023-11-21T16:07:18;100603.52;;;-1.04;100.00
64503;BME280;50971;51.940;21.258;2023-11-21T16:17:20;100621.14;;;-1.05;100.00
64503;BME280;50971;51.940;21.258;2023-11-21T16:27:25;100638.60;;;-0.99;100.00
64503;BME280;50971;51.940;21.258;2023-11-21T16:37:27;100644.09;;;-1.06;100.00
64503;BME280;50971;51.940;21.258;2023-11-21T16:47:28;100663.48;;;-0.99;100.00
64503;BME280;50971;51.940;21.258;2023-11-21T16:57:32;100677.11;;;-1.03;100.00
64503;BME280;50971;51.940;21.258;2023-11-21T17:07:36;100682.61;;;-1.09;100.00
64503;BME280;50971;51.940;21.258;2023-11-21T17:17:38;100695.08;;;-1.11;100.00
64503;BME280;50971;51.940;21.258;2023-11-21T17:27:40;100707.11;;;-1.23;100.00
64503;BME280;50971;51.940;21.258;2023-11-21T17:37:45;100720.53;;;-1.23;100.00
64503;BME280;50971;51.940;21.258;2023-11-21T17:47:47;100735.97;;;-1.20;100.00
64503;BME280;50971;51.940;21.258;2023-11-21T17:57:49;100747.57;;;-1.19;100.00
64503;BME280;50971;51.940;21.258;2023-11-21T18:07:50;100750.69;;;-1.22;100.00
64503;BME280;50971;51.940;21.258;2023-11-21T18:17:52;100755.29;;;-1.30;100.00
64503;BME280;50971;51.940;21.258;2023-11-21T18:27:55;100771.69;;;-1.28;100.00
64503;BME280;50971;51.940;21.258;2023-11-21T18:37:57;100788.80;;;-1.33;100.00
64503;BME280;50971;51.940;21.258;2023-11-21T18:47:59;100795.35;;;-1.40;100.00
64503;BME280;50971;51.940;21.258;2023-11-21T18:58:00;100803.52;;;-1.39;100.00
64503;BME280;50971;51.940;21.258;2023-11-21T19:08:03;100814.10;;;-1.42;100.00
64503;BME280;50971;51.940;21.258;2023-11-21T19:18:04;100828.14;;;-1.44;100.00
64503;BME280;50971;51.940;21.258;2023-11-21T19:28:07;100837.16;;;-1.45;100.00
64503;BME280;50971;51.940;21.258;2023-11-21T19:38:08;100841.80;;;-1.50;100.00
64503;BME280;50971;51.940;21.258;2023-11-21T19:48:10;100857.93;;;-1.44;100.00
64503;BME280;50971;51.940;21.258;2023-11-21T19:58:12;100865.19;;;-1.51;100.00
64503;BME280;50971;51.940;21.258;2023-11-21T20:08:19;100885.61;;;-1.47;100.00
64503;BME280;50971;51.940;21.258;2023-11-21T20:18:20;100897.48;;;-1.54;100.00
64503;BME280;50971;51.940;21.258;2023-11-21T20:28:23;100906.65;;;-1.53;100.00
64503;BME280;50971;51.940;21.258;2023-11-21T20:38:26;100922.91;;;-1.45;100.00
64503;BME280;50971;51.940;21.258;2023-11-21T20:48:29;100939.61;;;-1.54;100.00
64503;BME280;50971;51.940;21.258;2023-11-21T20:58:31;100942.80;;;-1.51;100.00
64503;BME280;50971;51.940;21.258;2023-11-21T21:08:32;100949.99;;;-1.60;100.00
64503;BME280;50971;51.940;21.258;2023-11-21T21:18:34;100965.55;;;-1.57;100.00
64503;BME280;50971;51.940;21.258;2023-11-21T21:28:36;100990.68;;;-1.63;100.00
64503;BME280;50971;51.940;21.258;2023-11-21T21:38:39;101009.47;;;-1.62;100.00
64503;BME280;50971;51.940;21.258;2023-11-21T21:48:40;101019.25;;;-1.67;100.00
64503;BME280;50971;51.940;21.258;2023-11-21T21:58:42;101036.34;;;-1.60;100.00
64503;BME280;50971;51.940;21.258;2023-11-21T22:08:44;101045.34;;;-1.69;100.00
64503;BME280;50971;51.940;21.258;2023-11-21T22:18:46;101054.27;;;-1.66;100.00
64503;BME280;50971;51.940;21.258;2023-11-21T22:28:47;101066.98;;;-1.75;100.00
64503;BME280;50971;51.940;21.258;2023-11-21T22:38:49;101072.85;;;-1.78;100.00
64503;BME280;50971;51.940;21.258;2023-11-21T22:48:51;101076.67;;;-1.82;100.00
64503;BME280;50971;51.940;21.258;2023-11-21T22:58:53;101086.25;;;-1.79;100.00
64503;BME280;50971;51.940;21.258;2023-11-21T23:08:55;101106.40;;;-1.86;100.00
64503;BME280;50971;51.940;21.258;2023-11-21T23:18:56;101113.61;;;-1.89;100.00
64503;BME280;50971;51.940;21.258;2023-11-21T23:28:58;101119.67;;;-1.92;100.00
64503;BME280;50971;51.940;21.258;2023-11-21T23:39:00;101133.73;;;-1.98;100.00
64503;BME280;50971;51.940;21.258;2023-11-21T23:49:01;101153.02;;;-1.98;100.00
64503;BME280;50971;51.940;21.258;2023-11-21T23:59:06;101158.73;;;-2.03;100.00
